Terminal Aerodrome Forecast
Issued by NWS

Home | Current Version | Previous Version | Text Only | Print | Product List | Glossary On
Versions: 1 2 3 4 5 6 7 8 9 10 11 12 13 14 15 16 17 18 19 20 21 22 23 24 25 26
000
FTUS45 KLKN 040046 AAA
TAFWMC
TAF AMD
KWMC 040046Z 0401/0424 24010G20KT P6SM SCT100 BKN200
     FM040230 26008KT P6SM SCT120
     FM040530 VRB05KT P6SM SCT120
     FM042000 27010KT P6SM BKN120=

USA.gov is the U.S. government's official web portal to all federal, state and local government web resources and services.